sensor_id;sensor_type;location;lat;lon;timestamp;pressure;altitude;pressure_sealevel;temperature;humidity
43683;BME280;29285;52.128;21.060;2023-02-23T00:01:27;100827.54;;;1.67;78.41
43683;BME280;29285;52.128;21.060;2023-02-23T00:06:29;100830.36;;;1.70;78.29
43683;BME280;29285;52.128;21.060;2023-02-23T00:11:29;100832.86;;;1.74;78.60
43683;BME280;29285;52.128;21.060;2023-02-23T00:16:33;100830.80;;;1.74;78.63
43683;BME280;29285;52.128;21.060;2023-02-23T00:21:34;100825.15;;;1.67;78.38
43683;BME280;29285;52.128;21.060;2023-02-23T00:26:35;100824.68;;;1.69;78.35
43683;BME280;29285;52.128;21.060;2023-02-23T00:31:37;100820.45;;;1.71;78.20
43683;BME280;29285;52.128;21.060;2023-02-23T00:36:38;100822.06;;;1.74;78.30
43683;BME280;29285;52.128;21.060;2023-02-23T00:41:40;100816.98;;;1.75;78.34
43683;BME280;29285;52.128;21.060;2023-02-23T00:46:42;100815.27;;;1.75;78.19
43683;BME280;29285;52.128;21.060;2023-02-23T00:51:43;100816.58;;;1.73;78.35
43683;BME280;29285;52.128;21.060;2023-02-23T00:56:45;100813.94;;;1.70;78.16
43683;BME280;29285;52.128;21.060;2023-02-23T01:01:46;100802.08;;;1.68;78.06
43683;BME280;29285;52.128;21.060;2023-02-23T01:06:47;100797.75;;;1.66;78.14
43683;BME280;29285;52.128;21.060;2023-02-23T01:11:49;100791.92;;;1.60;77.83
43683;BME280;29285;52.128;21.060;2023-02-23T01:16:50;100798.40;;;1.53;77.88
43683;BME280;29285;52.128;21.060;2023-02-23T01:21:51;100791.08;;;1.47;77.68
43683;BME280;29285;52.128;21.060;2023-02-23T01:26:51;100794.86;;;1.36;77.34
43683;BME280;29285;52.128;21.060;2023-02-23T01:31:53;100791.95;;;1.31;77.45
43683;BME280;29285;52.128;21.060;2023-02-23T01:36:54;100785.88;;;1.28;77.42
43683;BME280;29285;52.128;21.060;2023-02-23T01:41:55;100779.50;;;1.26;77.44
43683;BME280;29285;52.128;21.060;2023-02-23T01:46:56;100779.10;;;1.24;77.30
43683;BME280;29285;52.128;21.060;2023-02-23T01:51:59;100773.77;;;1.23;77.72
43683;BME280;29285;52.128;21.060;2023-02-23T01:57:02;100770.50;;;1.22;77.65
43683;BME280;29285;52.128;21.060;2023-02-23T02:02:04;100766.70;;;1.21;77.66
43683;BME280;29285;52.128;21.060;2023-02-23T02:07:05;100764.00;;;1.16;77.65
43683;BME280;29285;52.128;21.060;2023-02-23T02:12:10;100764.44;;;1.13;77.69
43683;BME280;29285;52.128;21.060;2023-02-23T02:17:18;100765.11;;;1.13;78.02
43683;BME280;29285;52.128;21.060;2023-02-23T02:22:41;100765.85;;;1.09;77.76
43683;BME280;29285;52.128;21.060;2023-02-23T02:27:56;100760.41;;;1.04;77.90
43683;BME280;29285;52.128;21.060;2023-02-23T02:43:27;100758.19;;;1.10;78.65
43683;BME280;29285;52.128;21.060;2023-02-23T02:48:45;100761.77;;;1.09;78.77
43683;BME280;29285;52.128;21.060;2023-02-23T02:54:00;100758.79;;;1.07;78.72
43683;BME280;29285;52.128;21.060;2023-02-23T02:59:08;100761.80;;;1.05;78.96
43683;BME280;29285;52.128;21.060;2023-02-23T03:04:29;100760.01;;;1.02;79.05
43683;BME280;29285;52.128;21.060;2023-02-23T03:09:54;100759.13;;;1.01;79.14
43683;BME280;29285;52.128;21.060;2023-02-23T03:20:56;100759.27;;;1.06;79.56
43683;BME280;29285;52.128;21.060;2023-02-23T03:26:38;100754.21;;;1.09;79.88
43683;BME280;29285;52.128;21.060;2023-02-23T03:32:05;100760.80;;;1.11;80.09
43683;BME280;29285;52.128;21.060;2023-02-23T03:37:26;100756.95;;;1.14;80.23
43683;BME280;29285;52.128;21.060;2023-02-23T03:42:48;100758.09;;;1.18;80.63
43683;BME280;29285;52.128;21.060;2023-02-23T03:48:10;100759.38;;;1.22;80.59
43683;BME280;29285;52.128;21.060;2023-02-23T03:53:32;100757.36;;;1.23;80.95
43683;BME280;29285;52.128;21.060;2023-02-23T03:58:55;100760.48;;;1.24;81.26
43683;BME280;29285;52.128;21.060;2023-02-23T04:04:17;100761.89;;;1.25;81.43
43683;BME280;29285;52.128;21.060;2023-02-23T04:09:38;100762.53;;;1.30;81.68
43683;BME280;29285;52.128;21.060;2023-02-23T04:15:09;100763.51;;;1.34;82.00
43683;BME280;29285;52.128;21.060;2023-02-23T04:20:12;100761.77;;;1.40;82.15
43683;BME280;29285;52.128;21.060;2023-02-23T04:25:13;100763.70;;;1.41;82.47
43683;BME280;29285;52.128;21.060;2023-02-23T04:30:15;100762.73;;;1.43;82.75
43683;BME280;29285;52.128;21.060;2023-02-23T04:35:16;100760.52;;;1.44;83.06
43683;BME280;29285;52.128;21.060;2023-02-23T04:40:17;100755.94;;;1.45;83.06
43683;BME280;29285;52.128;21.060;2023-02-23T04:45:18;100754.03;;;1.44;83.36
43683;BME280;29285;52.128;21.060;2023-02-23T04:50:20;100753.17;;;1.44;83.32
43683;BME280;29285;52.128;21.060;2023-02-23T04:55:21;100749.38;;;1.43;83.65
43683;BME280;29285;52.128;21.060;2023-02-23T05:00:23;100751.45;;;1.44;83.99
43683;BME280;29285;52.128;21.060;2023-02-23T05:05:24;100747.88;;;1.44;83.93
43683;BME280;29285;52.128;21.060;2023-02-23T05:10:25;100752.14;;;1.44;84.16
43683;BME280;29285;52.128;21.060;2023-02-23T05:15:26;100749.70;;;1.42;84.32
43683;BME280;29285;52.128;21.060;2023-02-23T05:20:27;100751.59;;;1.42;84.35
43683;BME280;29285;52.128;21.060;2023-02-23T05:25:28;100746.04;;;1.39;84.59
43683;BME280;29285;52.128;21.060;2023-02-23T05:30:29;100747.23;;;1.39;84.79
43683;BME280;29285;52.128;21.060;2023-02-23T05:35:30;100743.83;;;1.40;84.79
43683;BME280;29285;52.128;21.060;2023-02-23T05:40:31;100752.41;;;1.35;84.93
43683;BME280;29285;52.128;21.060;2023-02-23T05:45:32;100758.23;;;1.29;84.87
43683;BME280;29285;52.128;21.060;2023-02-23T05:50:32;100757.61;;;1.31;85.07
43683;BME280;29285;52.128;21.060;2023-02-23T05:55:34;100759.89;;;1.34;85.15
43683;BME280;29285;52.128;21.060;2023-02-23T06:00:35;100760.52;;;1.37;85.41
43683;BME280;29285;52.128;21.060;2023-02-23T06:05:36;100756.50;;;1.41;85.67
43683;BME280;29285;52.128;21.060;2023-02-23T06:10:36;100755.55;;;1.43;85.92
43683;BME280;29285;52.128;21.060;2023-02-23T06:15:37;100760.08;;;1.46;85.96
43683;BME280;29285;52.128;21.060;2023-02-23T06:20:39;100758.98;;;1.50;86.43
43683;BME280;29285;52.128;21.060;2023-02-23T06:25:41;100759.48;;;1.50;86.34
43683;BME280;29285;52.128;21.060;2023-02-23T06:30:42;100760.90;;;1.58;86.39
43683;BME280;29285;52.128;21.060;2023-02-23T06:35:44;100764.86;;;1.65;86.68
43683;BME280;29285;52.128;21.060;2023-02-23T06:40:46;100768.06;;;1.69;86.82
43683;BME280;29285;52.128;21.060;2023-02-23T06:45:46;100764.95;;;1.74;86.68
43683;BME280;29285;52.128;21.060;2023-02-23T06:50:47;100763.44;;;1.81;86.85
43683;BME280;29285;52.128;21.060;2023-02-23T06:55:48;100765.03;;;1.90;87.05
43683;BME280;29285;52.128;21.060;2023-02-23T07:00:49;100764.02;;;1.97;87.16
43683;BME280;29285;52.128;21.060;2023-02-23T07:05:50;100764.00;;;2.04;87.11
43683;BME280;29285;52.128;21.060;2023-02-23T07:10:51;100768.13;;;2.11;87.44
43683;BME280;29285;52.128;21.060;2023-02-23T07:15:55;100764.75;;;2.13;87.62
43683;BME280;29285;52.128;21.060;2023-02-23T07:20:56;100765.26;;;2.13;87.24
43683;BME280;29285;52.128;21.060;2023-02-23T07:25:57;100762.09;;;2.09;87.19
43683;BME280;29285;52.128;21.060;2023-02-23T07:31:00;100757.87;;;2.12;87.47
43683;BME280;29285;52.128;21.060;2023-02-23T07:36:01;100756.48;;;2.18;87.58
43683;BME280;29285;52.128;21.060;2023-02-23T07:41:02;100751.78;;;2.22;87.54
43683;BME280;29285;52.128;21.060;2023-02-23T07:46:04;100748.66;;;2.27;87.64
43683;BME280;29285;52.128;21.060;2023-02-23T07:51:08;100747.39;;;2.31;87.69
43683;BME280;29285;52.128;21.060;2023-02-23T07:56:11;100744.94;;;2.36;87.60
43683;BME280;29285;52.128;21.060;2023-02-23T08:01:12;100742.63;;;2.40;87.88
43683;BME280;29285;52.128;21.060;2023-02-23T08:06:13;100734.13;;;2.43;87.73
43683;BME280;29285;52.128;21.060;2023-02-23T08:11:15;100727.83;;;2.51;87.69
43683;BME280;29285;52.128;21.060;2023-02-23T08:16:16;100720.80;;;2.59;88.08
43683;BME280;29285;52.128;21.060;2023-02-23T08:21:18;100716.74;;;2.69;88.06
43683;BME280;29285;52.128;21.060;2023-02-23T08:26:19;100710.74;;;2.76;87.92
43683;BME280;29285;52.128;21.060;2023-02-23T08:31:20;100710.52;;;2.83;88.17
43683;BME280;29285;52.128;21.060;2023-02-23T08:36:22;100704.42;;;2.86;88.26
43683;BME280;29285;52.128;21.060;2023-02-23T08:41:23;100702.17;;;2.85;87.92
43683;BME280;29285;52.128;21.060;2023-02-23T08:46:25;100701.33;;;2.85;87.90
43683;BME280;29285;52.128;21.060;2023-02-23T08:51:25;100696.59;;;2.88;88.11
43683;BME280;29285;52.128;21.060;2023-02-23T08:56:26;100691.73;;;3.01;87.98
43683;BME280;29285;52.128;21.060;2023-02-23T09:01:28;100687.97;;;3.19;88.54
43683;BME280;29285;52.128;21.060;2023-02-23T09:06:29;100682.85;;;3.38;88.49
43683;BME280;29285;52.128;21.060;2023-02-23T09:11:30;100681.88;;;3.51;88.72
43683;BME280;29285;52.128;21.060;2023-02-23T09:16:31;100676.44;;;3.53;88.64
43683;BME280;29285;52.128;21.060;2023-02-23T09:21:33;100676.90;;;3.61;88.50
43683;BME280;29285;52.128;21.060;2023-02-23T09:26:34;100673.19;;;3.74;88.55
43683;BME280;29285;52.128;21.060;2023-02-23T09:31:39;100664.02;;;3.89;88.73
43683;BME280;29285;52.128;21.060;2023-02-23T09:36:40;100662.98;;;3.99;88.96
43683;BME280;29285;52.128;21.060;2023-02-23T09:52:14;100647.34;;;4.33;88.64
43683;BME280;29285;52.128;21.060;2023-02-23T09:57:17;100646.09;;;4.41;88.83
43683;BME280;29285;52.128;21.060;2023-02-23T10:02:22;100640.05;;;4.39;88.72
43683;BME280;29285;52.128;21.060;2023-02-23T10:07:38;100632.18;;;4.42;88.60
43683;BME280;29285;52.128;21.060;2023-02-23T10:18:11;100622.67;;;4.64;88.62
43683;BME280;29285;52.128;21.060;2023-02-23T10:23:19;100614.66;;;4.68;88.45
43683;BME280;29285;52.128;21.060;2023-02-23T10:28:21;100610.38;;;4.69;88.45
43683;BME280;29285;52.128;21.060;2023-02-23T10:33:29;100600.26;;;4.86;88.69
43683;BME280;29285;52.128;21.060;2023-02-23T10:38:32;100591.49;;;5.02;88.73
43683;BME280;29285;52.128;21.060;2023-02-23T10:43:34;100584.80;;;5.21;88.79
43683;BME280;29285;52.128;21.060;2023-02-23T10:48:38;100571.52;;;5.34;88.88
43683;BME280;29285;52.128;21.060;2023-02-23T10:53:42;100562.11;;;5.60;88.98
43683;BME280;29285;52.128;21.060;2023-02-23T10:58:47;100554.70;;;5.84;89.30
43683;BME280;29285;52.128;21.060;2023-02-23T11:03:48;100548.14;;;6.06;89.43
43683;BME280;29285;52.128;21.060;2023-02-23T11:08:50;100536.73;;;6.29;89.49
43683;BME280;29285;52.128;21.060;2023-02-23T11:13:51;100528.89;;;6.46;89.45
43683;BME280;29285;52.128;21.060;2023-02-23T11:18:55;100518.61;;;6.65;89.33
43683;BME280;29285;52.128;21.060;2023-02-23T11:24:00;100510.21;;;6.83;89.19
43683;BME280;29285;52.128;21.060;2023-02-23T11:29:03;100506.95;;;6.94;89.03
43683;BME280;29285;52.128;21.060;2023-02-23T11:34:16;100501.60;;;6.89;88.53
43683;BME280;29285;52.128;21.060;2023-02-23T11:39:19;100494.16;;;6.77;87.91
43683;BME280;29285;52.128;21.060;2023-02-23T11:44:23;100486.54;;;6.63;87.22
43683;BME280;29285;52.128;21.060;2023-02-23T11:49:28;100476.38;;;6.68;86.92
43683;BME280;29285;52.128;21.060;2023-02-23T11:54:30;100469.83;;;6.69;86.85
43683;BME280;29285;52.128;21.060;2023-02-23T11:59:36;100466.52;;;6.56;86.29
43683;BME280;29285;52.128;21.060;2023-02-23T12:04:38;100459.64;;;6.63;86.20
43683;BME280;29285;52.128;21.060;2023-02-23T12:09:40;100451.23;;;6.73;86.33
43683;BME280;29285;52.128;21.060;2023-02-23T12:19:48;100434.14;;;6.74;85.90
43683;BME280;29285;52.128;21.060;2023-02-23T12:24:51;100431.05;;;7.04;86.39
43683;BME280;29285;52.128;21.060;2023-02-23T12:40:26;100396.42;;;9.36;91.92
43683;BME280;29285;52.128;21.060;2023-02-23T12:45:31;100384.95;;;9.73;92.29
43683;BME280;29285;52.128;21.060;2023-02-23T12:50:36;100382.09;;;9.96;92.15
43683;BME280;29285;52.128;21.060;2023-02-23T12:55:42;100378.70;;;9.88;91.02
43683;BME280;29285;52.128;21.060;2023-02-23T13:11:26;100358.25;;;9.59;88.32
43683;BME280;29285;52.128;21.060;2023-02-23T13:31:39;100334.48;;;8.28;84.10
43683;BME280;29285;52.128;21.060;2023-02-23T13:36:41;100326.55;;;7.95;83.43
43683;BME280;29285;52.128;21.060;2023-02-23T13:41:49;100321.28;;;7.79;83.14
43683;BME280;29285;52.128;21.060;2023-02-23T13:47:05;100309.25;;;7.65;83.11
43683;BME280;29285;52.128;21.060;2023-02-23T13:52:28;100303.40;;;7.59;83.13
43683;BME280;29285;52.128;21.060;2023-02-23T13:57:30;100296.55;;;7.49;82.97
43683;BME280;29285;52.128;21.060;2023-02-23T14:02:38;100291.17;;;7.54;83.14
43683;BME280;29285;52.128;21.060;2023-02-23T14:07:41;100285.75;;;7.67;83.37
43683;BME280;29285;52.128;21.060;2023-02-23T14:23:15;100263.16;;;9.00;84.25
43683;BME280;29285;52.128;21.060;2023-02-23T14:38:41;100248.55;;;8.91;82.59
43683;BME280;29285;52.128;21.060;2023-02-23T14:43:43;100241.98;;;8.52;81.73
43683;BME280;29285;52.128;21.060;2023-02-23T14:48:54;100236.16;;;8.24;81.21
43683;BME280;29285;52.128;21.060;2023-02-23T14:53:58;100228.26;;;7.95;80.94
43683;BME280;29285;52.128;21.060;2023-02-23T14:58:59;100229.58;;;7.76;80.79
43683;BME280;29285;52.128;21.060;2023-02-23T15:04:04;100229.00;;;7.57;80.73
43683;BME280;29285;52.128;21.060;2023-02-23T15:09:06;100221.36;;;7.64;81.07
43683;BME280;29285;52.128;21.060;2023-02-23T15:14:08;100214.23;;;7.72;81.84
43683;BME280;29285;52.128;21.060;2023-02-23T15:19:17;100208.30;;;7.54;81.60
43683;BME280;29285;52.128;21.060;2023-02-23T15:24:21;100204.23;;;7.39;81.37
43683;BME280;29285;52.128;21.060;2023-02-23T15:29:25;100199.63;;;7.27;81.18
43683;BME280;29285;52.128;21.060;2023-02-23T15:34:29;100198.66;;;7.13;81.01
43683;BME280;29285;52.128;21.060;2023-02-23T15:39:35;100192.15;;;7.02;80.84
43683;BME280;29285;52.128;21.060;2023-02-23T15:44:39;100178.73;;;6.90;80.86
43683;BME280;29285;52.128;21.060;2023-02-23T15:49:40;100174.45;;;6.78;80.80
43683;BME280;29285;52.128;21.060;2023-02-23T15:59:48;100169.35;;;6.55;80.66
43683;BME280;29285;52.128;21.060;2023-02-23T16:04:50;100172.83;;;6.39;80.64
43683;BME280;29285;52.128;21.060;2023-02-23T16:09:54;100166.98;;;6.25;80.47
43683;BME280;29285;52.128;21.060;2023-02-23T16:14:56;100160.95;;;6.17;80.54
43683;BME280;29285;52.128;21.060;2023-02-23T16:20:04;100157.50;;;6.09;80.66
43683;BME280;29285;52.128;21.060;2023-02-23T16:25:11;100157.14;;;5.98;80.58
43683;BME280;29285;52.128;21.060;2023-02-23T16:30:20;100158.00;;;5.90;80.49
43683;BME280;29285;52.128;21.060;2023-02-23T16:35:22;100154.20;;;5.86;80.67
43683;BME280;29285;52.128;21.060;2023-02-23T16:40:24;100154.55;;;5.82;80.72
43683;BME280;29285;52.128;21.060;2023-02-23T16:45:25;100155.05;;;5.70;80.75
43683;BME280;29285;52.128;21.060;2023-02-23T16:50:27;100157.62;;;5.63;80.73
43683;BME280;29285;52.128;21.060;2023-02-23T16:55:28;100150.89;;;5.58;80.74
43683;BME280;29285;52.128;21.060;2023-02-23T17:00:30;100148.49;;;5.54;80.87
43683;BME280;29285;52.128;21.060;2023-02-23T17:05:31;100142.11;;;5.51;81.25
43683;BME280;29285;52.128;21.060;2023-02-23T17:10:32;100128.68;;;5.47;81.20
43683;BME280;29285;52.128;21.060;2023-02-23T17:15:35;100120.41;;;5.32;81.08
43683;BME280;29285;52.128;21.060;2023-02-23T17:20:36;100118.31;;;5.24;81.14
43683;BME280;29285;52.128;21.060;2023-02-23T17:25:36;100119.31;;;5.12;81.09
43683;BME280;29285;52.128;21.060;2023-02-23T17:30:37;100114.14;;;5.06;81.14
43683;BME280;29285;52.128;21.060;2023-02-23T17:35:39;100108.63;;;4.98;81.45
43683;BME280;29285;52.128;21.060;2023-02-23T17:40:40;100104.66;;;4.97;81.27
43683;BME280;29285;52.128;21.060;2023-02-23T17:45:41;100101.58;;;4.97;81.64
43683;BME280;29285;52.128;21.060;2023-02-23T17:50:42;100091.58;;;4.92;81.91
43683;BME280;29285;52.128;21.060;2023-02-23T17:55:43;100080.91;;;4.93;81.81
43683;BME280;29285;52.128;21.060;2023-02-23T18:00:46;100075.24;;;4.92;82.21
43683;BME280;29285;52.128;21.060;2023-02-23T18:05:48;100064.72;;;4.79;82.33
43683;BME280;29285;52.128;21.060;2023-02-23T18:10:52;100056.23;;;4.62;81.95
43683;BME280;29285;52.128;21.060;2023-02-23T18:15:54;100049.00;;;4.59;81.98
43683;BME280;29285;52.128;21.060;2023-02-23T18:20:56;100043.63;;;4.47;82.01
43683;BME280;29285;52.128;21.060;2023-02-23T18:26:04;100036.72;;;4.40;82.33
43683;BME280;29285;52.128;21.060;2023-02-23T18:31:07;100037.57;;;4.38;82.48
43683;BME280;29285;52.128;21.060;2023-02-23T18:36:15;100030.20;;;4.38;82.59
43683;BME280;29285;52.128;21.060;2023-02-23T18:41:17;100015.36;;;4.25;82.92
43683;BME280;29285;52.128;21.060;2023-02-23T18:46:18;100013.94;;;4.16;82.85
43683;BME280;29285;52.128;21.060;2023-02-23T18:51:20;100004.64;;;4.13;83.00
43683;BME280;29285;52.128;21.060;2023-02-23T18:56:22;99997.58;;;4.07;83.42
43683;BME280;29285;52.128;21.060;2023-02-23T19:01:28;99986.73;;;4.01;83.70
43683;BME280;29285;52.128;21.060;2023-02-23T19:06:30;99981.21;;;3.95;83.85
43683;BME280;29285;52.128;21.060;2023-02-23T19:11:32;99976.90;;;3.91;84.20
43683;BME280;29285;52.128;21.060;2023-02-23T19:16:34;99965.59;;;3.95;84.65
43683;BME280;29285;52.128;21.060;2023-02-23T19:21:36;99957.05;;;4.05;85.09
43683;BME280;29285;52.128;21.060;2023-02-23T19:26:37;99952.75;;;4.04;85.33
43683;BME280;29285;52.128;21.060;2023-02-23T19:31:39;99945.35;;;3.98;85.70
43683;BME280;29285;52.128;21.060;2023-02-23T19:36:42;99936.57;;;3.93;85.72
43683;BME280;29285;52.128;21.060;2023-02-23T19:41:46;99932.56;;;3.81;85.74
43683;BME280;29285;52.128;21.060;2023-02-23T19:46:47;99920.88;;;3.76;86.18
43683;BME280;29285;52.128;21.060;2023-02-23T19:51:48;99918.27;;;3.71;86.04
43683;BME280;29285;52.128;21.060;2023-02-23T19:56:50;99915.66;;;3.66;86.50
43683;BME280;29285;52.128;21.060;2023-02-23T20:01:51;99908.98;;;3.68;87.00
43683;BME280;29285;52.128;21.060;2023-02-23T20:06:52;99900.72;;;3.63;87.04
43683;BME280;29285;52.128;21.060;2023-02-23T20:11:54;99892.64;;;3.57;87.41
43683;BME280;29285;52.128;21.060;2023-02-23T20:16:55;99888.83;;;3.53;87.66
43683;BME280;29285;52.128;21.060;2023-02-23T20:21:56;99886.59;;;3.50;87.79
43683;BME280;29285;52.128;21.060;2023-02-23T20:26:58;99883.45;;;3.43;87.93
43683;BME280;29285;52.128;21.060;2023-02-23T20:32:00;99864.75;;;3.39;88.46
43683;BME280;29285;52.128;21.060;2023-02-23T20:37:01;99859.41;;;3.37;88.30
43683;BME280;29285;52.128;21.060;2023-02-23T20:42:04;99855.30;;;3.37;88.67
43683;BME280;29285;52.128;21.060;2023-02-23T20:47:05;99849.45;;;3.32;88.87
43683;BME280;29285;52.128;21.060;2023-02-23T20:52:09;99845.96;;;3.26;89.05
43683;BME280;29285;52.128;21.060;2023-02-23T20:57:11;99831.85;;;3.18;89.30
43683;BME280;29285;52.128;21.060;2023-02-23T21:02:12;99828.70;;;3.07;89.15
43683;BME280;29285;52.128;21.060;2023-02-23T21:07:14;99818.74;;;3.03;89.66
43683;BME280;29285;52.128;21.060;2023-02-23T21:12:15;99813.90;;;2.98;89.92
43683;BME280;29285;52.128;21.060;2023-02-23T21:17:16;99805.31;;;2.95;90.35
43683;BME280;29285;52.128;21.060;2023-02-23T21:22:17;99800.66;;;2.90;90.56
43683;BME280;29285;52.128;21.060;2023-02-23T21:27:18;99796.00;;;2.86;90.84
43683;BME280;29285;52.128;21.060;2023-02-23T21:32:19;99792.70;;;2.78;91.07
43683;BME280;29285;52.128;21.060;2023-02-23T21:37:20;99787.54;;;2.77;91.22
43683;BME280;29285;52.128;21.060;2023-02-23T21:42:21;99785.67;;;2.79;91.29
43683;BME280;29285;52.128;21.060;2023-02-23T21:47:23;99773.81;;;2.72;91.81
43683;BME280;29285;52.128;21.060;2023-02-23T21:52:24;99768.11;;;2.68;92.17
43683;BME280;29285;52.128;21.060;2023-02-23T21:57:25;99755.43;;;2.64;92.40
43683;BME280;29285;52.128;21.060;2023-02-23T22:02:28;99741.39;;;2.65;92.70
43683;BME280;29285;52.128;21.060;2023-02-23T22:07:30;99734.70;;;2.66;92.90
43683;BME280;29285;52.128;21.060;2023-02-23T22:12:32;99724.41;;;2.62;92.98
43683;BME280;29285;52.128;21.060;2023-02-23T22:17:33;99715.33;;;2.61;93.43
43683;BME280;29285;52.128;21.060;2023-02-23T22:22:35;99705.89;;;2.60;93.49
43683;BME280;29285;52.128;21.060;2023-02-23T22:27:36;99699.21;;;2.59;93.58
43683;BME280;29285;52.128;21.060;2023-02-23T22:32:37;99696.79;;;2.55;94.05
43683;BME280;29285;52.128;21.060;2023-02-23T22:37:38;99688.93;;;2.57;94.26
43683;BME280;29285;52.128;21.060;2023-02-23T22:42:43;99687.55;;;2.56;94.53
43683;BME280;29285;52.128;21.060;2023-02-23T22:47:47;99681.02;;;2.54;95.01
43683;BME280;29285;52.128;21.060;2023-02-23T22:52:48;99678.27;;;2.51;95.06
43683;BME280;29285;52.128;21.060;2023-02-23T22:57:50;99671.75;;;2.49;95.37
43683;BME280;29285;52.128;21.060;2023-02-23T23:02:51;99662.34;;;2.51;95.60
43683;BME280;29285;52.128;21.060;2023-02-23T23:07:52;99656.22;;;2.59;96.15
43683;BME280;29285;52.128;21.060;2023-02-23T23:12:54;99647.85;;;2.63;96.41
43683;BME280;29285;52.128;21.060;2023-02-23T23:17:56;99636.55;;;2.63;96.67
43683;BME280;29285;52.128;21.060;2023-02-23T23:22:57;99627.45;;;2.59;96.67
43683;BME280;29285;52.128;21.060;2023-02-23T23:27:58;99622.29;;;2.54;96.95
43683;BME280;29285;52.128;21.060;2023-02-23T23:32:59;99613.04;;;2.55;97.32
43683;BME280;29285;52.128;21.060;2023-02-23T23:38:01;99612.20;;;2.58;97.82
43683;BME280;29285;52.128;21.060;2023-02-23T23:43:02;99599.34;;;2.55;97.79
43683;BME280;29285;52.128;21.060;2023-02-23T23:48:07;99595.42;;;2.60;98.34
43683;BME280;29285;52.128;21.060;2023-02-23T23:53:09;99588.06;;;2.62;98.79
43683;BME280;29285;52.128;21.060;2023-02-23T23:58:10;99581.41;;;2.68;98.89
